Ault Field, Washington
Current Conditions -  °F | °C
As of 5:56 AM on Thursday 27 Nov 2014 (Local Time) from KNUW Reporting Station
Overcast Overcast  
Wind Chill: 56°   Ceiling: 1300
Heat Index: 56°   Visibility: 10mi
Dew Point: 49°   Wind: 21mph
Humidity: 77%   Direction: 130°SE
Pressure: 29.77"   Gusts: 32mph
Location:  48.3182°N, 122.634°W
Report Text: KNUW 271356Z AUTO 13018G28KT 10SM OVC013 13/09 A2977 RMK AO2 PK WND 14029/1314 SLP084 T01330094 $
Loading
Personal Weather Stations






























Interactive Weather Map New forecast layout! Learn more

10-Day Weather Forecast

Advertisements
Track Severe Weather on mobile